Stations météo

réclame
Mon MeteoGroup
Fichtelberg, Allemagne (10578): Température de l'air & dewpoint: 12.01.2019 00:00:00 - 18.01.2019 00:00:00 (CET)Fichtelberg, Allemagne (10578): Température de l'air 5cm & Température de l'air -5cm: 12.01.2019 00:00:00 - 18.01.2019 00:00:00 (CET)Fichtelberg, Allemagne (10578): Température de l'air -20cm & Température de l'air -100cm: 12.01.2019 00:00:00 - 18.01.2019 00:00:00 (CET)Fichtelberg, Allemagne (10578): Vitesse du vent & gusts: 12.01.2019 00:00:00 - 18.01.2019 00:00:00 (CET)Fichtelberg, Allemagne (10578): Direction du vent: 12.01.2019 00:00:00 - 18.01.2019 00:00:00 (CET)Fichtelberg, Allemagne (10578): visibility: 12.01.2019 00:00:00 - 18.01.2019 00:00:00 (CET)Fichtelberg, Allemagne (10578): Ensoleillement: 12.01.2019 00:00:00 - 18.01.2019 00:00:00 (CET)
Date & Time tt [°C] td [°C] tt 5cm [°C] tt -5cm [°C] tt -20cm [°C] tt -100cm [°C] ff [km/h] ff [knt] fx [km/h] fx [knt] dd vv [km] sd [min]
18.01.2019 00:00:00 -4,0 -4,5 -2,4 0,2 0,8 3,3 51 28 76 41 W 0,5 0
17.01.2019 23:00:00 -3,7 -4,2 -2,3 0,2 0,8 3,3 43 23 74 40 W 0,1 0
17.01.2019 22:00:00 -3,3 -3,9 -2,3 0,2 0,8 3,3 51 28 80 43 W 0,1 0
17.01.2019 21:00:00 -2,6 -2,9 -2,3 0,2 0,8 3,3 51 28 85 46 W 0,2 0
17.01.2019 20:00:00 -2,5 -2,9 -2,2 0,2 0,8 3,3 68 37 98 53 WSW 0,6 0
17.01.2019 19:00:00 -2,4 -2,9 -2,2 0,2 0,8 3,3 65 35 102 55 WSW 1,3 0
17.01.2019 18:00:00 -2,1 -2,6 -2,2 0,2 0,8 3,3 57 31 85 46 SW 0,5 0
17.01.2019 17:00:00 -1,7 -2,2 -2,3 0,2 0,8 3,3 66 35 88 48 WSW 8 0
17.01.2019 16:00:00 -1,2 -1,5 -2,3 0,2 0,8 3,3 56 30 86 47 WSW 0,1 0
17.01.2019 15:00:00 -0,9 -1,0 -2,4 0,2 0,8 3,3 52 28 72 39 WSW 0,1 0
17.01.2019 14:00:00 -0,9 -1,0 -2,5 0,2 0,8 3,3 50 27 71 38 WSW 0,1 0
17.01.2019 13:00:00 -0,9 -1,0 -2,6 0,2 0,8 3,3 54 29 68 37 WSW 0,1 0
17.01.2019 12:00:00 -1,0 -1,1 -2,7 0,2 0,8 3,3 46 25 65 35 WSW 0,1 0
17.01.2019 11:00:00 -1,3 -1,4 -2,7 0,2 0,8 3,3 46 25 72 39 WSW 0,1 0
17.01.2019 10:00:00 -1,7 -1,8 -2,8 0,2 0,8 3,3 54 29 74 40 WSW 0,1 0
17.01.2019 09:00:00 -1,9 -2,1 -2,9 0,2 0,8 3,3 60 32 87 47 WSW 0,1 0
17.01.2019 08:00:00 -2,2 -2,4 -3,0 0,2 0,8 3,3 61 33 91 49 W 0,1 0
17.01.2019 07:00:00 -2,4 -2,7 -3,0 0,2 0,8 3,3 69 37 93 50 WSW 0,1 0
17.01.2019 06:00:00 -2,4 -2,7 -3,0 0,2 0,8 3,3 75 40 110 60 W 0,1 0
17.01.2019 05:00:00 -2,5 -2,8 -3,0 0,2 0,8 3,3 80 43 124 67 W 0,1 0
17.01.2019 04:00:00 -2,9 -3,3 -3,0 0,2 0,8 3,3 95 51 125 67 WSW 3,5 0
17.01.2019 03:00:00 -3,2 -3,7 -3,0 0,2 0,8 3,3 82 44 106 58 WSW 8 0
17.01.2019 02:00:00 -3,4 -3,8 -2,9 0,2 0,8 3,3 84 45 110 59 WSW 23 0
17.01.2019 01:00:00 -3,7 -4,4 -2,8 0,2 0,8 3,3 79 43 97 52 WSW 42 0
17.01.2019 00:00:00 -3,3 -3,9 -2,8 0,2 0,8 3,3 72 39 98 53 WSW 37 0
16.01.2019 23:00:00 -3,2 -3,7 -2,8 0,2 0,8 3,3 75 40 95 51 WSW 28 0
16.01.2019 22:00:00 -3,3 -3,8 -2,7 0,2 0,8 3,3 74 40 93 50 WSW 40 0
16.01.2019 21:00:00 -3,4 -4,0 -2,6 0,2 0,8 3,3 65 35 86 47 WSW 26 0
16.01.2019 20:00:00 -3,3 -3,8 -2,6 0,2 0,8 3,3 72 39 87 47 SW 3,4 0
16.01.2019 19:00:00 -3,4 -3,9 -2,5 0,2 0,8 3,3 71 38 83 45 SW 0,3 0
16.01.2019 18:00:00 -3,5 -4,1 -2,5 0,2 0,8 3,3 66 36 83 45 SW 0,1 0
16.01.2019 17:00:00 -3,5 -4,2 -2,5 0,2 0,8 3,3 63 34 77 42 SW 0,4 0
16.01.2019 16:00:00 -3,0 -3,6 -2,5 0,2 0,8 3,3 56 30 72 39 SW 0,1 0
16.01.2019 15:00:00 -2,3 -2,8 -2,5 0,2 0,8 3,3 53 29 63 34 SW 0,1 0
16.01.2019 14:00:00 -2,0 -2,3 -2,5 0,2 0,8 3,3 45 24 59 32 WSW 0,1 0
16.01.2019 13:00:00 -1,9 -2,1 -2,6 0,2 0,8 3,3 41 22 60 33 WSW 0,1 0
16.01.2019 12:00:00 -1,9 -2,1 -2,6 0,2 0,8 3,3 45 24 65 35 W 0,1 0
16.01.2019 11:00:00 -2,1 -2,3 -2,7 0,2 0,8 3,3 49 26 61 33 W 0,1 0
16.01.2019 10:00:00 -2,3 -2,5 -2,7 0,2 0,8 3,3 46 25 66 36 W 0,1 0
16.01.2019 09:00:00 -2,4 -2,7 -2,8 0,2 0,8 3,3 48 26 64 35 W 0,1 0
16.01.2019 08:00:00 -2,4 -2,7 -2,8 0,2 0,8 3,3 54 29 71 38 W 0,1 0
16.01.2019 07:00:00 -2,3 -2,6 -2,8 0,2 0,8 3,3 56 30 74 40 W 0,1 0
16.01.2019 06:00:00 -2,1 -2,4 -2,9 0,2 0,8 3,3 50 27 67 36 W 0,1 0
16.01.2019 05:00:00 -2,0 -2,2 -2,9 0,2 0,8 3,3 46 25 61 33 W 0,1 0
16.01.2019 04:00:00 -1,9 -2,1 -3,0 0,2 0,8 3,3 55 30 86 46 W 0,1 0
16.01.2019 03:00:00 -1,9 -2,1 -3,1 0,2 0,8 3,3 62 33 84 45 W 0,1 0
16.01.2019 02:00:00 -2,0 -2,1 -3,1 0,2 0,8 3,3 58 31 80 43 W 0,1 0
16.01.2019 01:00:00 -2,2 -2,5 -3,2 0,2 0,8 3,3 61 33 82 44 W 0,1 0
16.01.2019 00:00:00 -2,3 -2,5 -3,2 0,2 0,8 3,3 59 32 82 45 W 0,1 0
15.01.2019 23:00:00 -2,3 -2,6 -3,3 0,2 0,8 3,3 67 36 94 51 W 0,1 0
15.01.2019 22:00:00 -2,4 -2,7 -3,4 0,2 0,8 3,3 72 39 107 58 W 0,1 0
15.01.2019 21:00:00 -2,5 -2,8 -3,5 0,2 0,8 3,3 76 41 103 55 W 0,1 0
15.01.2019 20:00:00 -2,6 -3,0 -3,5 0,2 0,8 3,3 77 41 114 61 W 0,1 0
15.01.2019 19:00:00 -2,7 -3,0 -3,6 0,2 0,8 3,3 80 43 103 56 W 0,1 0
15.01.2019 18:00:00 -3,0 -3,4 -3,6 0,2 0,8 3,3 75 40 105 57 W 0,1 0
15.01.2019 17:00:00 -3,4 -3,8 -3,7 0,2 0,8 3,3 71 38 98 53 W 0,1 0
15.01.2019 16:00:00 -3,6 -4,1 -3,7 0,2 0,8 3,3 75 40 103 55 W 0,1 0
15.01.2019 15:00:00 -3,7 -4,2 -3,8 0,2 0,8 3,3 73 39 100 54 W 0,1 0
15.01.2019 14:00:00 -3,9 -4,4 -3,9 0,2 0,8 3,3 75 41 96 52 W 0,1 0
15.01.2019 13:00:00 -4,3 -4,8 -3,9 0,2 0,8 3,3 75 40 95 51 W 0,1 0
15.01.2019 12:00:00 -4,9 -5,5 -4,0 0,2 0,8 3,3 76 41 97 52 W 0,1 0
15.01.2019 11:00:00 -5,4 -6,1 -4,0 0,2 0,8 3,3 73 39 98 53 W 0,2 5
15.01.2019 10:00:00 -5,8 -6,5 -4,0 0,2 0,8 3,3 68 37 93 50 W 5 0
15.01.2019 09:00:00 -5,9 -6,6 -4,1 0,2 0,8 3,3 68 37 91 49 W 0,1 0
15.01.2019 08:00:00 -6,0 -6,8 -4,1 0,2 0,8 3,3 65 35 86 46 W 0,2 0
15.01.2019 07:00:00 -6,0 -6,8 -4,0 0,2 0,8 3,3 66 36 92 50 W 0,3 0
15.01.2019 06:00:00 -6,1 -6,9 -4,0 0,2 0,8 3,3 66 36 87 47 W 0,1 0
15.01.2019 05:00:00 -6,2 -7,0 -4,0 0,2 0,8 3,3 68 37 90 48 W 0,1 0
15.01.2019 04:00:00 -6,3 -7,1 -4,0 0,2 0,8 3,3 61 33 88 47 W 0,1 0
15.01.2019 03:00:00 -6,6 -7,5 -3,9 0,2 0,8 3,3 64 34 93 50 W 0,2 0
15.01.2019 02:00:00 -6,8 -7,7 -3,9 0,2 0,8 3,3 63 34 96 52 W 0,2 0
15.01.2019 01:00:00 -7,0 -7,8 -3,8 0,2 0,8 3,3 61 33 76 41 W 0,1 0
15.01.2019 00:00:00 -7,2 -8,1 -3,7 0,2 0,8 3,3 59 32 81 44 W 0,3 0
14.01.2019 23:00:00 -7,4 -8,2 -3,6 0,2 0,8 3,3 53 29 77 42 W 0,1 0
14.01.2019 22:00:00 -7,5 -8,5 -3,5 0,2 0,8 3,3 54 29 82 45 WNW 0,8 0
14.01.2019 21:00:00 -7,5 -8,5 -3,3 0,2 0,8 3,3 59 32 76 41 WNW 0,5 0
14.01.2019 20:00:00 -7,6 -8,7 -3,2 0,2 0,8 3,3 57 31 87 47 WNW 0,8 0
14.01.2019 19:00:00 -7,5 -8,5 -3,1 0,2 0,8 3,4 59 32 88 48 WNW 0,2 0
14.01.2019 18:00:00 -7,5 -8,8 -3,0 0,2 0,8 3,4 71 38 95 52 WNW 0,2 0
14.01.2019 17:00:00 -6,1 -7,0 -2,9 0,2 0,8 3,4 73 40 105 57 WNW 0,2 0
14.01.2019 16:00:00 -6,0 -6,9 -2,8 0,2 0,8 3,4 68 37 104 56 WNW 0,1 0
14.01.2019 15:00:00 -5,9 -6,8 -2,7 0,2 0,8 3,4 75 40 99 54 WNW 0,2 0
14.01.2019 14:00:00 -5,8 -6,8 -2,6 0,2 0,8 3,4 76 41 107 58 WNW 0,1 0
14.01.2019 13:00:00 -5,3 -6,2 -2,6 0,2 0,8 3,4 64 35 90 49 WNW 0,1 0
14.01.2019 12:00:00 -4,8 -5,5 -2,5 0,2 0,8 3,4 64 35 94 51 WNW 0,1 0
14.01.2019 11:00:00 -5,0 -5,6 -2,4 0,2 0,8 3,4 65 35 97 52 W 0,2 0
14.01.2019 10:00:00 -5,3 -6,1 -2,3 0,2 0,8 3,4 78 42 102 55 WNW 0,3 0
14.01.2019 09:00:00 -5,6 -6,4 -2,2 0,2 0,8 3,4 76 41 102 55 WNW 0,9 0
14.01.2019 08:00:00 -5,6 -6,7 -2,0 0,2 0,8 3,4 78 42 114 62 WNW 2,6 0
14.01.2019 07:00:00 -4,2 -5,0 -1,9 0,2 0,8 3,4 82 44 125 67 WNW 0,1 0
14.01.2019 06:00:00 -3,8 -4,7 -1,9 0,2 0,8 3,4 92 50 129 70 WNW 1,0 0
14.01.2019 05:00:00 -3,0 -3,7 -1,8 0,2 0,8 3,4 90 49 130 70 WNW 0,2 0
14.01.2019 04:00:00 -2,5 -3,1 -1,8 0,2 0,8 3,4 81 44 117 63 WNW 0,1 0
14.01.2019 03:00:00 -1,9 -2,4 -1,8 0,2 0,8 3,4 75 41 113 61 WNW 0,1 0
14.01.2019 02:00:00 -1,8 -2,2 -1,9 0,2 0,8 3,4 72 39 114 62 W 0,1 0
14.01.2019 01:00:00 -1,5 -1,8 -1,9 0,2 0,8 3,4 71 38 104 56 W 0,1 0
14.01.2019 00:00:00 -1,2 -1,4 -2,0 0,2 0,8 3,4 78 42 103 55 W 0,1 0
13.01.2019 23:00:00 -0,8 -1,2 -2,1 0,2 0,8 3,4 77 42 108 58 W 0,1 0
13.01.2019 22:00:00 -0,1 -0,1 -2,2 0,2 0,8 3,4 63 34 125 67 W 0,1 0
13.01.2019 21:00:00 -0,1 -0,1 -2,3 0,2 0,8 3,4 72 39 111 60 W 0,1 0
13.01.2019 20:00:00 -0,2 -0,2 -2,3 0,2 0,8 3,4 74 40 96 52 W 0,1 0
13.01.2019 19:00:00 -0,4 -0,4 -2,4 0,2 0,8 3,4 74 40 94 51 W 0,1 0
13.01.2019 18:00:00 -0,8 -0,8 -2,4 0,2 0,8 3,4 74 40 95 51 W 0,1 0
13.01.2019 17:00:00 -1,1 -1,1 -2,5 0,2 0,8 3,4 71 39 96 52 W 0,1 0
13.01.2019 16:00:00 -1,2 -1,3 -2,5 0,2 0,8 3,4 71 38 99 53 W 0,2 0
13.01.2019 15:00:00 -1,0 -1,2 -2,5 0,2 0,8 3,4 76 41 105 57 WSW 0,1 0
13.01.2019 14:00:00 -0,8 -0,8 -2,6 0,2 0,8 3,4 71 38 99 53 WSW 0,2 0
13.01.2019 13:00:00 -1,1 -1,1 -2,7 0,2 0,8 3,4 72 39 96 52 WSW 0,1 0
13.01.2019 12:00:00 -1,3 -1,3 -2,8 0,2 0,8 3,4 63 34 82 45 W 0,1 0
13.01.2019 11:00:00 -1,6 -1,6 -2,9 0,2 0,8 3,4 64 35 97 52 W 0,1 0
13.01.2019 10:00:00 -1,9 -2,0 -2,9 0,2 0,8 3,4 63 34 87 47 W 0,1 0
13.01.2019 09:00:00 -2,1 -2,3 -3,0 0,2 0,8 3,4 61 33 87 47 W 0,1 0
13.01.2019 08:00:00 -2,2 -2,3 -3,0 0,2 0,8 3,4 61 33 84 45 W 0,1 0
13.01.2019 07:00:00 -2,3 -2,4 -3,0 0,2 0,8 3,4 59 32 81 44 W 0,1 0
13.01.2019 06:00:00 -2,4 -2,5 -3,1 0,2 0,8 3,4 53 29 78 42 W 0,1 0
13.01.2019 05:00:00 -2,4 -2,6 -3,1 0,2 0,8 3,4 64 35 87 47 W 0,1 0
13.01.2019 04:00:00 -2,4 -2,6 -3,1 0,2 0,8 3,4 63 34 88 47 W 0,1 0
13.01.2019 03:00:00 -2,4 -2,5 -3,1 0,2 0,8 3,4 58 31 77 41 W 0,2 0
13.01.2019 02:00:00 -2,5 -2,7 -3,2 0,2 0,8 3,4 60 32 90 49 W 0,1 0
13.01.2019 01:00:00 -2,5 -2,7 -3,2 0,2 0,8 3,4 66 35 84 45 W 0,1 0
13.01.2019 00:00:00 -2,6 -2,8 -3,2 0,2 0,8 3,4 60 32 84 45 W 0,1 0
12.01.2019 23:00:00 -2,7 -2,8 -3,2 0,2 0,8 3,4 64 35 92 50 W 0,1 0
12.01.2019 22:00:00 -2,8 -3,0 -3,2 0,2 0,8 3,4 66 36 93 50 W 0,1 0
12.01.2019 21:00:00 -2,9 -3,1 -3,3 0,2 0,8 3,4 68 37 96 52 W 0,1 0
12.01.2019 20:00:00 -3,0 -3,2 -3,2 0,2 0,8 3,4 68 37 92 50 W 0,1 0
12.01.2019 19:00:00 -3,0 -3,3 -3,2 0,2 0,8 3,4 72 39 94 51 W 0,1 0
12.01.2019 18:00:00 -2,9 -3,2 -3,2 0,2 0,8 3,4 70 38 92 50 W 0,1 0
12.01.2019 17:00:00 -2,8 -3,1 -3,1 0,2 0,8 3,4 69 37 86 46 W 0,1 0
12.01.2019 16:00:00 -2,5 -2,7 -3,0 0,2 0,8 3,4 62 33 90 49 W 0,1 0
12.01.2019 15:00:00 -2,2 -2,4 -2,9 0,2 0,8 3,4 64 35 95 51 W 0,1 0
12.01.2019 14:00:00 -2,0 -2,1 -2,8 0,2 0,8 3,4 69 37 87 47 W 0,1 0
12.01.2019 13:00:00 -2,1 -2,2 -2,9 0,2 0,8 3,4 64 35 89 48 W 0,1 0
12.01.2019 12:00:00 -2,2 -2,4 -3,1 0,2 0,8 3,4 70 38 94 51 W 0,1 0
12.01.2019 11:00:00 -2,4 -2,5 -3,3 0,2 0,8 3,4 69 37 89 48 W 0,1 0
12.01.2019 10:00:00 -2,7 -2,9 -3,5 0,2 0,8 3,4 73 40 87 47 W 0,1 0
12.01.2019 09:00:00 -3,0 -3,4 -3,7 0,2 0,8 3,4 68 37 89 48 W 0,1 0
12.01.2019 08:00:00 -3,0 -3,4 -3,7 0,2 0,8 3,4 67 36 87 47 W 0,1 0
12.01.2019 07:00:00 -3,0 -3,5 -3,8 0,2 0,8 3,4 70 38 91 49 W 0,1 0
12.01.2019 06:00:00 -3,0 -3,4 -3,8 0,2 0,8 3,4 74 40 93 50 W 0,1 0
12.01.2019 05:00:00 -2,9 -3,3 -3,9 0,2 0,8 3,4 63 34 89 48 W 0,1 0
12.01.2019 04:00:00 -3,0 -3,4 -3,9 0,2 0,8 3,4 73 40 93 50 WNW 0,1 0
12.01.2019 03:00:00 -3,0 -3,5 -4,0 0,2 0,8 3,4 72 39 95 51 WNW 0,1 0
12.01.2019 02:00:00 -3,0 -3,5 -4,1 0,2 0,8 3,4 77 41 97 52 WNW 0,1 0
12.01.2019 01:00:00 -2,9 -3,3 -4,2 0,2 0,8 3,4 74 40 96 52 WNW 0,1 0
12.01.2019 00:00:00 -2,9 -3,4 -4,3 0,2 0,8 3,4 73 39 99 53 WNW 0,1 0

tt = Température de l'air
td = dewpoint
tt 5cm = Température de l'air 5cm
tt -5cm = Température de l'air -5cm
tt -20cm = Température de l'air -20cm
tt -100cm = Température de l'air -100cm
ff = Vitesse du vent
fx = gusts
dd = Direction du vent
vv = visibility
sd = Ensoleillement

stations d'obs. à proximité